Time;durP1;ratioP1;P1;durP2;ratioP2;P2;SDS_P1;SDS_P2;PMS_P1;PMS_P2;Temp;Humidity;BMP_temperature;BMP_pressure;BME280_temperature;BME280_humidity;BME280_pressure;Samples;Min_cycle;Max_cycle;Signal;HPM_P1;HPM_P2
2022/03/26 00:01:19;;;;;;;90.90;60.70;;;;;;;;;;4981336;28;20213;-69
2022/03/26 00:03:44;;;;;;;96.67;61.60;;;;;;;;;;4980975;28;20209;-68
2022/03/26 00:06:09;;;;;;;91.43;60.10;;;;;;;;;;4980906;28;20812;-68
2022/03/26 00:08:35;;;;;;;90.90;61.80;;;;;;;;;;4979226;28;20183;-67
2022/03/26 00:11:00;;;;;;;105.13;65.47;;;;;;;;;;4981293;28;20236;-68
2022/03/26 00:13:25;;;;;;;100.30;64.97;;;;;;;;;;4982402;28;20196;-68
2022/03/26 00:15:51;;;;;;;98.77;64.20;;;;;;;;;;4981171;28;20272;-68
2022/03/26 00:18:17;;;;;;;106.17;68.27;;;;;;;;;;4980465;28;20169;-67
2022/03/26 00:20:43;;;;;;;99.30;65.70;;;;;;;;;;4981008;28;20185;-68
2022/03/26 00:23:08;;;;;;;101.67;64.93;;;;;;;;;;4979966;28;20456;-68
2022/03/26 00:25:33;;;;;;;101.33;65.37;;;;;;;;;;4982194;28;20571;-68
2022/03/26 00:27:59;;;;;;;102.03;68.07;;;;;;;;;;4978001;28;20193;-68
2022/03/26 00:30:24;;;;;;;107.37;68.23;;;;;;;;;;4982040;28;20185;-68
2022/03/26 00:32:49;;;;;;;102.00;66.17;;;;;;;;;;4983617;28;20188;-68
2022/03/26 00:35:14;;;;;;;104.03;68.80;;;;;;;;;;4982770;28;20190;-69
2022/03/26 00:37:40;;;;;;;109.50;70.67;;;;;;;;;;4981574;28;20202;-68
2022/03/26 00:40:06;;;;;;;112.33;69.63;;;;;;;;;;4978617;28;20189;-67
2022/03/26 00:42:31;;;;;;;110.73;70.20;;;;;;;;;;4982056;28;20197;-68
2022/03/26 00:44:57;;;;;;;104.10;67.07;;;;;;;;;;4985938;28;20888;-68
2022/03/26 00:47:22;;;;;;;101.23;66.70;;;;;;;;;;4984197;28;20248;-67
2022/03/26 00:49:47;;;;;;;108.23;67.70;;;;;;;;;;4983187;28;20185;-68
2022/03/26 00:52:12;;;;;;;101.57;64.97;;;;;;;;;;4984503;28;20193;-68
2022/03/26 00:54:39;;;;;;;109.57;67.30;;;;;;;;;;4983687;28;20297;-68
2022/03/26 00:57:04;;;;;;;103.20;64.10;;;;;;;;;;4982613;28;20303;-68
2022/03/26 00:59:29;;;;;;;105.00;66.03;;;;;;;;;;4981826;28;20450;-68
2022/03/26 01:01:54;;;;;;;108.60;67.47;;;;;;;;;;4980280;28;21750;-68
2022/03/26 01:04:20;;;;;;;105.70;69.43;;;;;;;;;;4984707;28;20179;-67
2022/03/26 01:06:45;;;;;;;108.10;68.90;;;;;;;;;;4983713;28;20202;-68
2022/03/26 01:09:11;;;;;;;111.00;68.53;;;;;;;;;;4980955;28;20186;-67
2022/03/26 01:11:36;;;;;;;108.03;69.33;;;;;;;;;;4982290;28;20186;-67
2022/03/26 01:14:01;;;;;;;110.37;70.10;;;;;;;;;;4985594;28;20213;-67
2022/03/26 01:16:27;;;;;;;114.80;71.60;;;;;;;;;;5013675;22;20241;-69
2022/03/26 01:18:53;;;;;;;107.67;70.07;;;;;;;;;;5002831;28;20212;-69
2022/03/26 01:21:19;;;;;;;118.70;72.40;;;;;;;;;;5001676;28;20230;-69
2022/03/26 01:23:46;;;;;;;110.23;70.30;;;;;;;;;;5005482;28;20201;-69
2022/03/26 01:26:12;;;;;;;108.93;69.60;;;;;;;;;;5003249;28;20435;-69
2022/03/26 01:28:37;;;;;;;115.43;71.03;;;;;;;;;;5004256;28;20447;-69
2022/03/26 01:31:02;;;;;;;115.17;70.27;;;;;;;;;;5002542;28;20224;-69
2022/03/26 01:33:28;;;;;;;119.30;74.93;;;;;;;;;;5002863;28;20273;-69
2022/03/26 01:35:54;;;;;;;121.17;72.10;;;;;;;;;;5002153;28;20235;-69
2022/03/26 01:38:19;;;;;;;118.67;72.90;;;;;;;;;;5003647;28;20564;-69
2022/03/26 01:40:44;;;;;;;117.33;73.17;;;;;;;;;;5003573;28;20450;-69
2022/03/26 01:43:09;;;;;;;118.90;74.40;;;;;;;;;;5002921;28;20209;-69
2022/03/26 01:45:35;;;;;;;117.37;73.70;;;;;;;;;;5003306;28;20192;-69
2022/03/26 01:48:00;;;;;;;125.17;74.33;;;;;;;;;;5000039;28;20197;-69
2022/03/26 01:50:27;;;;;;;124.93;74.07;;;;;;;;;;5002296;28;20191;-69
2022/03/26 01:52:52;;;;;;;114.30;72.47;;;;;;;;;;5005358;28;20177;-69
2022/03/26 01:55:18;;;;;;;106.37;67.57;;;;;;;;;;5004627;28;20451;-69
2022/03/26 01:57:44;;;;;;;110.67;72.67;;;;;;;;;;5003331;28;20275;-69
2022/03/26 02:00:09;;;;;;;109.50;69.80;;;;;;;;;;5002438;28;20442;-69
2022/03/26 02:02:35;;;;;;;118.57;73.47;;;;;;;;;;5005323;28;20580;-69
2022/03/26 02:05:00;;;;;;;110.50;70.20;;;;;;;;;;5004106;28;20177;-69
2022/03/26 02:07:26;;;;;;;110.00;70.43;;;;;;;;;;5001260;28;20575;-69
2022/03/26 02:09:51;;;;;;;115.50;72.97;;;;;;;;;;5002446;28;20666;-69
2022/03/26 02:12:26;;;;;;;112.77;71.90;;;;;;;;;;5003101;28;20177;-69
2022/03/26 02:14:52;;;;;;;118.23;70.30;;;;;;;;;;5002921;28;20575;-69
2022/03/26 02:17:18;;;;;;;117.50;73.90;;;;;;;;;;5003151;28;20513;-69
2022/03/26 02:19:53;;;;;;;127.83;73.53;;;;;;;;;;5003039;28;20184;-69
2022/03/26 02:22:20;;;;;;;110.33;70.73;;;;;;;;;;5006669;28;20459;-69
2022/03/26 02:24:45;;;;;;;111.70;70.77;;;;;;;;;;5008405;28;20424;-69
2022/03/26 02:27:11;;;;;;;116.70;72.03;;;;;;;;;;5005223;28;20529;-69
2022/03/26 02:29:36;;;;;;;122.33;77.20;;;;;;;;;;5003807;28;20173;-69
2022/03/26 02:32:01;;;;;;;116.53;73.17;;;;;;;;;;5002022;28;20188;-69
2022/03/26 02:34:27;;;;;;;118.63;74.57;;;;;;;;;;5016905;28;20177;-69
2022/03/26 02:36:56;;;;;;;128.10;76.33;;;;;;;;;;5005838;28;20204;-69
2022/03/26 02:39:21;;;;;;;116.70;74.67;;;;;;;;;;5003518;28;20309;-69
2022/03/26 02:41:47;;;;;;;120.13;74.53;;;;;;;;;;5005134;28;21090;-69
2022/03/26 02:44:12;;;;;;;120.90;75.23;;;;;;;;;;5003324;28;20735;-69
2022/03/26 02:46:37;;;;;;;118.93;75.43;;;;;;;;;;5002426;28;20201;-69
2022/03/26 02:49:02;;;;;;;124.00;76.63;;;;;;;;;;5004997;28;20611;-69
2022/03/26 02:51:28;;;;;;;131.67;81.97;;;;;;;;;;5003324;28;20177;-69
2022/03/26 02:53:53;;;;;;;131.03;79.83;;;;;;;;;;5005585;28;20234;-69
2022/03/26 02:56:19;;;;;;;129.70;80.57;;;;;;;;;;5000441;28;21252;-69
2022/03/26 02:58:45;;;;;;;129.60;82.17;;;;;;;;;;5002475;28;20188;-69
2022/03/26 03:01:12;;;;;;;124.50;77.30;;;;;;;;;;5000220;28;20177;-69
2022/03/26 03:03:37;;;;;;;125.47;78.77;;;;;;;;;;5003640;28;20467;-69
2022/03/26 03:06:02;;;;;;;121.77;75.90;;;;;;;;;;5002808;28;20503;-70
2022/03/26 03:08:27;;;;;;;127.77;79.70;;;;;;;;;;5000389;28;20181;-69
2022/03/26 03:10:53;;;;;;;127.20;76.43;;;;;;;;;;4996645;28;20185;-69
2022/03/26 03:13:21;;;;;;;125.40;77.50;;;;;;;;;;5000152;28;20188;-69
2022/03/26 03:15:46;;;;;;;125.00;76.00;;;;;;;;;;4999888;28;20189;-69
2022/03/26 03:18:11;;;;;;;129.03;78.37;;;;;;;;;;5000141;28;20475;-70
2022/03/26 03:20:37;;;;;;;131.13;76.73;;;;;;;;;;4998827;28;20209;-69
2022/03/26 03:23:02;;;;;;;127.00;78.20;;;;;;;;;;5001670;28;20213;-69
2022/03/26 03:25:29;;;;;;;128.57;75.10;;;;;;;;;;4999916;28;20196;-69
2022/03/26 03:27:55;;;;;;;119.40;76.93;;;;;;;;;;5003045;28;20193;-69
2022/03/26 03:30:20;;;;;;;118.40;73.83;;;;;;;;;;5000490;28;20517;-69
2022/03/26 03:32:45;;;;;;;123.50;76.40;;;;;;;;;;5002506;28;20272;-69
2022/03/26 03:35:10;;;;;;;125.00;78.97;;;;;;;;;;5002428;28;20177;-69
2022/03/26 03:37:37;;;;;;;127.40;77.03;;;;;;;;;;5002010;28;20280;-69
2022/03/26 03:40:03;;;;;;;121.30;75.17;;;;;;;;;;5002558;28;20188;-69
2022/03/26 03:42:28;;;;;;;123.27;75.63;;;;;;;;;;5001303;28;20455;-69
2022/03/26 03:44:53;;;;;;;119.63;73.83;;;;;;;;;;5001626;28;20924;-69
2022/03/26 03:47:19;;;;;;;128.33;78.40;;;;;;;;;;5000791;28;20188;-69
2022/03/26 03:49:44;;;;;;;124.30;77.10;;;;;;;;;;5001398;28;20522;-69
2022/03/26 03:52:09;;;;;;;126.10;75.97;;;;;;;;;;5003953;28;20176;-69
2022/03/26 03:54:34;;;;;;;124.10;75.10;;;;;;;;;;5001841;28;20193;-69
2022/03/26 03:57:00;;;;;;;125.43;76.93;;;;;;;;;;4998097;28;20205;-70
2022/03/26 03:59:25;;;;;;;119.03;75.30;;;;;;;;;;5001195;28;20638;-70
2022/03/26 04:01:50;;;;;;;124.23;76.33;;;;;;;;;;5000844;28;20885;-69
2022/03/26 04:04:16;;;;;;;123.03;74.80;;;;;;;;;;5002418;28;20645;-69
2022/03/26 04:06:41;;;;;;;125.20;76.57;;;;;;;;;;5000696;28;20284;-69
2022/03/26 04:09:06;;;;;;;117.50;73.70;;;;;;;;;;5000397;28;20424;-69
2022/03/26 04:11:32;;;;;;;110.57;68.03;;;;;;;;;;4997318;28;20177;-69
2022/03/26 04:13:57;;;;;;;114.73;72.03;;;;;;;;;;5001777;28;20642;-69
2022/03/26 04:16:23;;;;;;;111.90;71.10;;;;;;;;;;5001646;28;20962;-69
2022/03/26 04:18:48;;;;;;;120.60;72.77;;;;;;;;;;4998869;28;20189;-69
2022/03/26 04:21:14;;;;;;;110.80;70.10;;;;;;;;;;5001367;28;20191;-69
2022/03/26 04:23:39;;;;;;;118.60;72.10;;;;;;;;;;5002569;28;20262;-69
2022/03/26 04:26:06;;;;;;;124.83;73.90;;;;;;;;;;4998026;28;20256;-69
2022/03/26 04:28:31;;;;;;;121.97;74.60;;;;;;;;;;5002446;28;20181;-69
2022/03/26 04:30:56;;;;;;;118.40;72.53;;;;;;;;;;4998215;28;20534;-69
2022/03/26 04:33:22;;;;;;;121.53;72.23;;;;;;;;;;5000182;28;20239;-69
2022/03/26 04:35:47;;;;;;;120.03;74.30;;;;;;;;;;5000437;28;20207;-69
2022/03/26 04:38:12;;;;;;;121.13;76.03;;;;;;;;;;5001964;28;20715;-69
2022/03/26 04:40:37;;;;;;;127.70;75.27;;;;;;;;;;4998380;28;20667;-69
2022/03/26 04:43:03;;;;;;;123.13;75.80;;;;;;;;;;5002458;28;20229;-69
2022/03/26 04:45:32;;;;;;;121.53;74.37;;;;;;;;;;4999552;28;20173;-69
2022/03/26 04:47:57;;;;;;;122.20;74.20;;;;;;;;;;4999863;28;20263;-69
2022/03/26 04:50:22;;;;;;;123.90;76.07;;;;;;;;;;5000396;28;20428;-69
2022/03/26 04:52:48;;;;;;;120.10;74.60;;;;;;;;;;5000200;28;20184;-69
2022/03/26 04:55:14;;;;;;;124.50;75.60;;;;;;;;;;5001899;28;20264;-69
2022/03/26 04:57:43;;;;;;;122.07;73.00;;;;;;;;;;5000097;28;20458;-69
2022/03/26 05:00:09;;;;;;;116.90;74.87;;;;;;;;;;4998953;28;20173;-69
2022/03/26 05:02:36;;;;;;;114.43;72.97;;;;;;;;;;5001276;28;20483;-69
2022/03/26 05:05:02;;;;;;;124.20;74.90;;;;;;;;;;4996982;28;20424;-69
2022/03/26 05:07:45;;;;;;;122.83;75.63;;;;;;;;;;5013806;28;20997;-69
2022/03/26 05:10:21;;;;;;;113.20;71.70;;;;;;;;;;5001701;28;20494;-69
2022/03/26 05:12:47;;;;;;;119.73;74.27;;;;;;;;;;5000009;28;20432;-69
2022/03/26 05:15:13;;;;;;;112.63;70.33;;;;;;;;;;5000879;28;20523;-69
2022/03/26 05:17:38;;;;;;;121.90;73.50;;;;;;;;;;5002070;28;20213;-69
2022/03/26 05:20:04;;;;;;;125.53;76.77;;;;;;;;;;5000433;28;20442;-69
2022/03/26 05:22:29;;;;;;;118.57;75.33;;;;;;;;;;5003918;28;20215;-69
2022/03/26 05:24:54;;;;;;;120.43;72.00;;;;;;;;;;4998016;28;20538;-69
2022/03/26 05:27:20;;;;;;;111.90;71.77;;;;;;;;;;5001451;28;20572;-70
2022/03/26 05:29:46;;;;;;;126.53;72.37;;;;;;;;;;5001849;28;20173;-69
2022/03/26 05:32:11;;;;;;;113.43;69.43;;;;;;;;;;5003131;28;20180;-70
2022/03/26 05:34:37;;;;;;;109.67;66.13;;;;;;;;;;5001930;28;20444;-69
2022/03/26 05:37:04;;;;;;;113.50;69.17;;;;;;;;;;4999118;28;20699;-69
2022/03/26 05:39:29;;;;;;;117.77;67.87;;;;;;;;;;5003559;28;20677;-69
2022/03/26 05:41:55;;;;;;;113.90;71.60;;;;;;;;;;5001007;28;20468;-69
2022/03/26 05:44:20;;;;;;;109.20;67.90;;;;;;;;;;5001270;28;20608;-69
2022/03/26 05:46:45;;;;;;;113.30;70.30;;;;;;;;;;5001740;28;20209;-69
2022/03/26 05:49:10;;;;;;;106.90;67.63;;;;;;;;;;5003740;28;20223;-69
2022/03/26 05:51:36;;;;;;;107.50;66.63;;;;;;;;;;5004909;28;20205;-69
2022/03/26 05:54:01;;;;;;;110.97;66.07;;;;;;;;;;5006291;28;20650;-69
2022/03/26 05:56:26;;;;;;;95.43;62.03;;;;;;;;;;5003675;28;20193;-69
2022/03/26 05:58:52;;;;;;;100.90;63.80;;;;;;;;;;5004115;28;20303;-69
2022/03/26 06:01:17;;;;;;;105.20;63.03;;;;;;;;;;5002386;28;20196;-69
2022/03/26 06:03:42;;;;;;;103.97;63.70;;;;;;;;;;5001647;28;20886;-69
2022/03/26 06:06:08;;;;;;;103.30;62.80;;;;;;;;;;5003346;28;20600;-69
2022/03/26 06:08:33;;;;;;;97.40;60.93;;;;;;;;;;5003275;28;20193;-69
2022/03/26 06:10:58;;;;;;;91.50;59.80;;;;;;;;;;5001703;28;20169;-69
2022/03/26 06:13:23;;;;;;;92.97;60.50;;;;;;;;;;5003715;28;20180;-69
2022/03/26 06:15:49;;;;;;;83.83;56.90;;;;;;;;;;5000632;28;20181;-69
2022/03/26 06:18:14;;;;;;;88.80;57.03;;;;;;;;;;5002122;28;20216;-69
2022/03/26 06:20:42;;;;;;;84.60;54.80;;;;;;;;;;5000538;28;20189;-69
2022/03/26 06:23:07;;;;;;;92.17;56.80;;;;;;;;;;5003960;28;20212;-69
2022/03/26 06:25:33;;;;;;;85.63;55.50;;;;;;;;;;5005709;28;20459;-69
2022/03/26 06:27:58;;;;;;;77.53;51.73;;;;;;;;;;5002963;28;20208;-69
2022/03/26 06:30:23;;;;;;;85.13;53.97;;;;;;;;;;5000412;28;20173;-69
2022/03/26 06:32:49;;;;;;;89.03;55.57;;;;;;;;;;5002591;28;20204;-69
2022/03/26 06:35:14;;;;;;;81.43;52.60;;;;;;;;;;5004676;28;20177;-69
2022/03/26 06:37:39;;;;;;;84.70;55.17;;;;;;;;;;5001550;28;20208;-69
2022/03/26 06:40:05;;;;;;;87.40;56.73;;;;;;;;;;5003071;28;20235;-70
2022/03/26 06:42:30;;;;;;;82.20;54.03;;;;;;;;;;5000931;28;20240;-69
2022/03/26 06:44:59;;;;;;;85.73;53.83;;;;;;;;;;5005526;28;20181;-69
2022/03/26 06:47:25;;;;;;;82.63;53.13;;;;;;;;;;5001921;28;20213;-70
2022/03/26 06:49:51;;;;;;;85.70;54.80;;;;;;;;;;5004101;28;20428;-69
2022/03/26 06:52:16;;;;;;;85.50;53.67;;;;;;;;;;5003731;28;20510;-69
2022/03/26 06:54:41;;;;;;;78.07;51.13;;;;;;;;;;5005486;28;20436;-69
2022/03/26 06:57:06;;;;;;;79.13;51.93;;;;;;;;;;5007118;28;20200;-69
2022/03/26 06:59:32;;;;;;;77.93;52.17;;;;;;;;;;5005369;28;20169;-70
2022/03/26 07:01:57;;;;;;;78.60;50.10;;;;;;;;;;5008680;28;20169;-69
2022/03/26 07:04:22;;;;;;;69.17;47.20;;;;;;;;;;5008630;28;20173;-70
2022/03/26 07:06:47;;;;;;;73.23;47.57;;;;;;;;;;5007043;28;20247;-69
2022/03/26 07:09:13;;;;;;;76.87;49.47;;;;;;;;;;5002507;28;20187;-69
2022/03/26 07:11:38;;;;;;;74.17;45.87;;;;;;;;;;5003472;28;20235;-69
2022/03/26 07:14:03;;;;;;;82.20;49.27;;;;;;;;;;5007043;28;20177;-69
2022/03/26 07:18:56;;;;;;;74.30;47.93;;;;;;;;;;4992879;28;20243;-70
2022/03/26 07:21:21;;;;;;;68.20;46.70;;;;;;;;;;5004438;28;20773;-71
2022/03/26 07:23:46;;;;;;;68.30;48.10;;;;;;;;;;5002959;28;20248;-72
2022/03/26 07:26:12;;;;;;;71.70;46.43;;;;;;;;;;5004190;28;20177;-71
2022/03/26 07:28:37;;;;;;;69.33;47.20;;;;;;;;;;5000661;28;20279;-71
2022/03/26 07:31:02;;;;;;;72.43;48.07;;;;;;;;;;5001160;28;20207;-71
2022/03/26 07:33:27;;;;;;;75.63;49.10;;;;;;;;;;4999250;28;20271;-71
2022/03/26 07:35:52;;;;;;;70.60;46.77;;;;;;;;;;5012778;28;20180;-71
2022/03/26 07:38:18;;;;;;;67.87;45.93;;;;;;;;;;5000065;28;20287;-72
2022/03/26 07:40:43;;;;;;;67.57;45.87;;;;;;;;;;5000409;28;20268;-70
2022/03/26 07:43:08;;;;;;;70.47;46.43;;;;;;;;;;4998026;28;20208;-71
2022/03/26 07:45:34;;;;;;;72.87;47.33;;;;;;;;;;4997375;28;20646;-71
2022/03/26 07:47:59;;;;;;;72.40;46.80;;;;;;;;;;4995697;28;20197;-71
2022/03/26 07:50:24;;;;;;;66.37;44.40;;;;;;;;;;4992868;28;20187;-74
2022/03/26 07:52:50;;;;;;;69.70;48.80;;;;;;;;;;4997573;28;20280;-72
2022/03/26 07:55:15;;;;;;;71.70;48.00;;;;;;;;;;4999897;28;20197;-72
2022/03/26 07:57:40;;;;;;;67.20;45.10;;;;;;;;;;4997654;28;20215;-72
2022/03/26 08:00:06;;;;;;;64.60;43.03;;;;;;;;;;4993872;28;20696;-71
2022/03/26 08:02:31;;;;;;;64.53;43.80;;;;;;;;;;4990565;28;25321;-71
2022/03/26 08:04:56;;;;;;;56.70;38.70;;;;;;;;;;4991379;28;20185;-72
2022/03/26 08:07:21;;;;;;;62.90;42.13;;;;;;;;;;4995615;28;20193;-70
2022/03/26 08:09:48;;;;;;;60.30;39.13;;;;;;;;;;4995244;28;20196;-71
2022/03/26 08:12:13;;;;;;;55.30;36.43;;;;;;;;;;4996317;28;20251;-73
2022/03/26 08:14:38;;;;;;;52.20;36.50;;;;;;;;;;4999186;28;20436;-72
2022/03/26 08:17:04;;;;;;;44.33;32.10;;;;;;;;;;4997955;28;20287;-71
2022/03/26 08:19:29;;;;;;;56.50;35.77;;;;;;;;;;4996781;28;20617;-73
2022/03/26 08:21:54;;;;;;;51.60;34.47;;;;;;;;;;5000037;28;20182;-71
2022/03/26 08:24:20;;;;;;;47.00;34.50;;;;;;;;;;4999688;28;20224;-72
2022/03/26 08:26:45;;;;;;;48.50;32.37;;;;;;;;;;4991604;28;20209;-72
2022/03/26 08:29:10;;;;;;;39.90;29.77;;;;;;;;;;4996987;28;20272;-72
2022/03/26 08:31:35;;;;;;;45.90;31.97;;;;;;;;;;4997689;28;21187;-72
2022/03/26 08:34:01;;;;;;;41.50;29.10;;;;;;;;;;4998907;28;20617;-72
2022/03/26 08:36:26;;;;;;;36.90;27.87;;;;;;;;;;5000157;28;20243;-71
2022/03/26 08:38:52;;;;;;;41.00;30.97;;;;;;;;;;4999185;28;20239;-71
2022/03/26 08:41:19;;;;;;;42.43;29.77;;;;;;;;;;4998283;28;20609;-72
2022/03/26 08:43:45;;;;;;;36.40;26.90;;;;;;;;;;4997817;28;20211;-72
2022/03/26 08:46:10;;;;;;;34.30;27.07;;;;;;;;;;4995734;28;23851;-71
2022/03/26 08:48:35;;;;;;;34.97;26.30;;;;;;;;;;4990386;28;20373;-71
2022/03/26 08:51:01;;;;;;;32.10;24.03;;;;;;;;;;4997109;28;20213;-72
2022/03/26 08:53:27;;;;;;;31.50;24.80;;;;;;;;;;4994664;28;20615;-73
2022/03/26 08:55:52;;;;;;;32.40;24.90;;;;;;;;;;4994780;28;20189;-72
2022/03/26 08:58:18;;;;;;;28.87;21.30;;;;;;;;;;4991944;28;20217;-72
2022/03/26 09:00:45;;;;;;;29.73;20.77;;;;;;;;;;4985239;28;20186;-72
2022/03/26 09:03:11;;;;;;;35.30;22.03;;;;;;;;;;4993966;28;20215;-72
2022/03/26 09:05:36;;;;;;;33.17;22.63;;;;;;;;;;4999402;28;20436;-72
2022/03/26 09:08:01;;;;;;;28.90;20.47;;;;;;;;;;5002179;28;20201;-72
2022/03/26 09:10:26;;;;;;;22.80;16.80;;;;;;;;;;4998105;28;20182;-72
2022/03/26 09:12:52;;;;;;;34.10;18.90;;;;;;;;;;5001137;28;20184;-76
2022/03/26 09:15:17;;;;;;;27.90;19.73;;;;;;;;;;4993171;28;20189;-71
2022/03/26 09:17:42;;;;;;;23.87;18.50;;;;;;;;;;4997441;28;20286;-71
2022/03/26 09:20:08;;;;;;;27.90;16.50;;;;;;;;;;4992573;28;20209;-71
2022/03/26 09:22:34;;;;;;;22.03;15.30;;;;;;;;;;5001068;28;20291;-72
2022/03/26 09:25:00;;;;;;;15.40;11.93;;;;;;;;;;4996135;28;20497;-72
2022/03/26 09:27:25;;;;;;;13.90;10.97;;;;;;;;;;4999339;28;20221;-72
2022/03/26 09:29:50;;;;;;;16.90;11.77;;;;;;;;;;4996990;28;20191;-72
2022/03/26 09:32:16;;;;;;;16.50;11.77;;;;;;;;;;5003278;28;20173;-73
2022/03/26 09:34:41;;;;;;;14.83;10.93;;;;;;;;;;4991007;28;20196;-72
2022/03/26 09:37:06;;;;;;;18.90;11.70;;;;;;;;;;4999432;28;20220;-73
2022/03/26 09:39:32;;;;;;;13.27;10.30;;;;;;;;;;4991719;28;20665;-73
2022/03/26 09:41:57;;;;;;;14.00;10.43;;;;;;;;;;5011046;28;20181;-73
2022/03/26 09:44:23;;;;;;;13.70;10.97;;;;;;;;;;5000159;28;20578;-72
2022/03/26 09:46:48;;;;;;;13.03;11.20;;;;;;;;;;4992677;28;20288;-73
2022/03/26 09:49:13;;;;;;;14.90;10.77;;;;;;;;;;4995359;28;20192;-73
2022/03/26 09:51:39;;;;;;;16.60;12.47;;;;;;;;;;4999194;28;20191;-73
2022/03/26 09:54:04;;;;;;;17.90;11.33;;;;;;;;;;4997415;28;20634;-73
2022/03/26 09:56:30;;;;;;;14.17;11.77;;;;;;;;;;4998535;28;20173;-73
2022/03/26 09:58:56;;;;;;;17.93;11.83;;;;;;;;;;4995184;28;20878;-72
2022/03/26 10:01:22;;;;;;;15.60;11.93;;;;;;;;;;4997889;28;20898;-73
2022/03/26 10:04:23;;;;;;;15.00;10.00;;;;;;;;;;5002221;28;20572;-72
2022/03/26 10:06:55;;;;;;;11.87;9.60;;;;;;;;;;4956049;28;25257;-72
2022/03/26 10:09:27;;;;;;;12.47;9.90;;;;;;;;;;4992134;28;20450;-72
2022/03/26 10:12:11;;;;;;;15.47;11.03;;;;;;;;;;4993170;28;20970;-70
2022/03/26 10:14:39;;;;;;;12.93;10.33;;;;;;;;;;4994081;28;20853;-72
2022/03/26 10:17:24;;;;;;;13.23;10.87;;;;;;;;;;4999364;28;20570;-72
2022/03/26 10:19:49;;;;;;;13.90;10.90;;;;;;;;;;4993063;28;20424;-70
2022/03/26 10:22:22;;;;;;;16.50;10.67;;;;;;;;;;5000677;28;20779;-73
2022/03/26 10:24:48;;;;;;;14.00;10.17;;;;;;;;;;4999888;28;20197;-72
2022/03/26 10:27:13;;;;;;;13.03;9.77;;;;;;;;;;4997759;28;20454;-73
2022/03/26 10:29:49;;;;;;;12.67;8.90;;;;;;;;;;4995800;28;20709;-73
2022/03/26 10:35:04;;;;;;;10.13;8.30;;;;;;;;;;4999476;28;20439;-72
2022/03/26 10:37:30;;;;;;;9.07;7.73;;;;;;;;;;4990291;28;20459;-72
2022/03/26 10:39:55;;;;;;;8.43;7.23;;;;;;;;;;4987125;28;20470;-71
2022/03/26 10:42:28;;;;;;;14.30;7.10;;;;;;;;;;4992492;28;20234;-71
2022/03/26 10:44:53;;;;;;;10.50;7.90;;;;;;;;;;4982801;28;20196;-71
2022/03/26 10:47:18;;;;;;;9.83;7.73;;;;;;;;;;4989643;28;20483;-71
2022/03/26 10:49:44;;;;;;;12.23;7.83;;;;;;;;;;4988936;28;20672;-72
2022/03/26 10:52:13;;;;;;;7.47;6.00;;;;;;;;;;4998107;28;20177;-71
2022/03/26 10:54:39;;;;;;;9.03;6.77;;;;;;;;;;4995432;28;20181;-71
2022/03/26 10:57:05;;;;;;;7.63;6.10;;;;;;;;;;4996080;28;20491;-70
2022/03/26 10:59:31;;;;;;;8.03;5.90;;;;;;;;;;4998724;28;20185;-69
2022/03/26 11:01:57;;;;;;;8.40;6.80;;;;;;;;;;4996472;28;20541;-69
2022/03/26 11:04:22;;;;;;;12.70;7.57;;;;;;;;;;4994931;28;20217;-69
2022/03/26 11:06:48;;;;;;;7.80;6.63;;;;;;;;;;4991783;28;20469;-70
2022/03/26 11:09:15;;;;;;;14.60;7.57;;;;;;;;;;4995302;28;20192;-72
2022/03/26 11:11:40;;;;;;;10.60;7.60;;;;;;;;;;4991534;28;21137;-71
2022/03/26 11:14:08;;;;;;;7.87;6.90;;;;;;;;;;4996693;28;20443;-72
2022/03/26 11:16:37;;;;;;;10.10;7.90;;;;;;;;;;4995287;28;20312;-72
2022/03/26 11:19:08;;;;;;;10.37;7.53;;;;;;;;;;4992357;28;20435;-72
2022/03/26 11:21:45;;;;;;;10.30;7.60;;;;;;;;;;4997479;28;20444;-71
2022/03/26 11:24:20;;;;;;;9.97;7.60;;;;;;;;;;4997038;28;20475;-71
2022/03/26 11:26:54;;;;;;;11.63;8.50;;;;;;;;;;4995507;28;20867;-72
2022/03/26 11:29:20;;;;;;;12.03;8.40;;;;;;;;;;4989193;28;20427;-71
2022/03/26 11:31:46;;;;;;;8.43;7.30;;;;;;;;;;5003240;28;20935;-71
2022/03/26 11:34:12;;;;;;;11.03;7.10;;;;;;;;;;5000692;28;20232;-71
2022/03/26 11:36:37;;;;;;;9.03;6.53;;;;;;;;;;4994980;28;20444;-71
2022/03/26 11:39:13;;;;;;;6.73;5.57;;;;;;;;;;5002732;28;20273;-71
2022/03/26 11:41:38;;;;;;;7.97;5.97;;;;;;;;;;5002976;28;20185;-72
2022/03/26 11:44:04;;;;;;;7.60;5.43;;;;;;;;;;5001787;28;20486;-72
2022/03/26 11:50:41;;;;;;;9.90;4.77;;;;;;;;;;5002600;28;20217;-71
2022/03/26 11:52:32;;;;;;;5.73;4.40;;;;;;;;;;4999497;28;20804;-71
2022/03/26 11:55:24;;;;;;;6.90;3.83;;;;;;;;;;5001809;28;21437;-72
2022/03/26 11:58:10;;;;;;;6.13;4.93;;;;;;;;;;4996247;28;20462;-71
2022/03/26 12:00:51;;;;;;;6.80;4.77;;;;;;;;;;4997621;28;20440;-71
2022/03/26 12:03:20;;;;;;;5.43;4.47;;;;;;;;;;5001165;28;20467;-72
2022/03/26 12:08:35;;;;;;;5.20;4.40;;;;;;;;;;4995626;28;21161;-72
2022/03/26 12:11:00;;;;;;;5.70;4.50;;;;;;;;;;4999267;28;20429;-71
2022/03/26 12:13:31;;;;;;;6.50;4.63;;;;;;;;;;4996829;28;20429;-71
2022/03/26 12:15:59;;;;;;;6.20;4.73;;;;;;;;;;5000353;28;20178;-72
2022/03/26 12:18:32;;;;;;;5.20;3.90;;;;;;;;;;4994641;28;20510;-72
2022/03/26 12:21:18;;;;;;;4.40;3.30;;;;;;;;;;4998474;28;20443;-71
2022/03/26 12:23:43;;;;;;;5.70;4.27;;;;;;;;;;5003028;28;20570;-72
2022/03/26 12:26:09;;;;;;;6.20;4.33;;;;;;;;;;5001569;28;21029;-71
2022/03/26 12:28:36;;;;;;;5.37;3.77;;;;;;;;;;5001678;28;20713;-70
2022/03/26 12:31:11;;;;;;;4.67;4.27;;;;;;;;;;5002536;28;20185;-70
2022/03/26 12:33:43;;;;;;;6.30;4.23;;;;;;;;;;5003297;28;20431;-70
2022/03/26 12:36:09;;;;;;;5.23;3.50;;;;;;;;;;4998417;28;20435;-70
2022/03/26 12:38:34;;;;;;;4.23;3.50;;;;;;;;;;5000500;28;20490;-69
2022/03/26 12:41:01;;;;;;;4.20;3.80;;;;;;;;;;5002104;28;20770;-69
2022/03/26 12:43:27;;;;;;;3.60;2.90;;;;;;;;;;5002701;28;20215;-70
2022/03/26 12:45:53;;;;;;;4.57;4.07;;;;;;;;;;5000144;28;20805;-69
2022/03/26 12:48:19;;;;;;;3.47;3.00;;;;;;;;;;5004576;28;20448;-70
2022/03/26 12:50:45;;;;;;;4.23;3.40;;;;;;;;;;5006463;28;20873;-70
2022/03/26 12:53:12;;;;;;;5.27;3.13;;;;;;;;;;4998694;28;20499;-70
2022/03/26 12:55:38;;;;;;;3.77;3.30;;;;;;;;;;5005668;28;20193;-70
2022/03/26 13:00:58;;;;;;;5.07;3.70;;;;;;;;;;5001303;28;20708;-71
2022/03/26 13:03:26;;;;;;;5.70;4.00;;;;;;;;;;5002497;28;20467;-70
2022/03/26 13:05:51;;;;;;;4.57;3.50;;;;;;;;;;5000330;28;20485;-70
2022/03/26 13:08:16;;;;;;;6.90;4.07;;;;;;;;;;5000603;28;20459;-70
2022/03/26 13:10:42;;;;;;;7.43;4.20;;;;;;;;;;4997371;28;20264;-70
2022/03/26 13:13:08;;;;;;;6.30;4.60;;;;;;;;;;5001452;28;20201;-70
2022/03/26 13:15:34;;;;;;;4.03;3.63;;;;;;;;;;5003266;28;20471;-70
2022/03/26 13:18:01;;;;;;;3.90;3.50;;;;;;;;;;5006562;23;20235;-69
2022/03/26 13:20:28;;;;;;;5.73;5.03;;;;;;;;;;5015734;28;20439;-69
2022/03/26 13:22:58;;;;;;;10.73;5.70;;;;;;;;;;5021223;28;20467;-69
2022/03/26 13:25:23;;;;;;;8.50;6.17;;;;;;;;;;5023482;28;21088;-69
2022/03/26 13:27:49;;;;;;;7.37;5.00;;;;;;;;;;5023685;28;20465;-70
2022/03/26 13:30:15;;;;;;;7.23;4.27;;;;;;;;;;5000694;28;20339;-71
2022/03/26 13:32:43;;;;;;;6.50;4.90;;;;;;;;;;4996785;28;20195;-70
2022/03/26 13:35:11;;;;;;;5.87;5.03;;;;;;;;;;5002207;28;20424;-70
2022/03/26 13:37:36;;;;;;;4.53;3.90;;;;;;;;;;5008110;28;20452;-70
2022/03/26 13:40:03;;;;;;;4.63;3.83;;;;;;;;;;4997862;28;20452;-69
2022/03/26 13:42:29;;;;;;;5.77;3.90;;;;;;;;;;5003647;28;20181;-70
2022/03/26 13:44:55;;;;;;;3.87;3.47;;;;;;;;;;5003524;28;20487;-71
2022/03/26 13:47:21;;;;;;;4.60;3.50;;;;;;;;;;5001229;28;20204;-70
2022/03/26 13:50:00;;;;;;;4.50;3.80;;;;;;;;;;4993293;28;20544;-71
2022/03/26 13:52:26;;;;;;;4.80;4.37;;;;;;;;;;4999628;28;20440;-70
2022/03/26 13:54:51;;;;;;;8.50;4.20;;;;;;;;;;5000662;28;20523;-70
2022/03/26 13:57:27;;;;;;;6.50;4.40;;;;;;;;;;5004860;28;20547;-71
2022/03/26 13:59:52;;;;;;;4.90;4.40;;;;;;;;;;5006031;28;20165;-70
2022/03/26 14:02:22;;;;;;;5.60;4.97;;;;;;;;;;4999657;28;20432;-70
2022/03/26 14:04:48;;;;;;;7.50;5.20;;;;;;;;;;4992664;28;20189;-70
2022/03/26 14:07:14;;;;;;;9.47;5.47;;;;;;;;;;5000597;28;20558;-70
2022/03/26 14:09:39;;;;;;;5.03;4.10;;;;;;;;;;4994369;28;20187;-71
2022/03/26 14:12:04;;;;;;;6.67;4.53;;;;;;;;;;5000009;28;20436;-71
2022/03/26 14:14:30;;;;;;;7.13;4.77;;;;;;;;;;5016255;28;24135;-71
2022/03/26 14:16:55;;;;;;;4.27;3.80;;;;;;;;;;5002411;28;20276;-70
2022/03/26 14:19:20;;;;;;;4.77;3.80;;;;;;;;;;5001194;28;20170;-71
2022/03/26 14:21:46;;;;;;;7.17;5.40;;;;;;;;;;5000426;28;20181;-71
2022/03/26 14:24:11;;;;;;;5.10;4.00;;;;;;;;;;5000872;28;20212;-71
2022/03/26 14:26:36;;;;;;;6.27;4.10;;;;;;;;;;5003146;28;20264;-71
2022/03/26 14:29:01;;;;;;;7.23;4.10;;;;;;;;;;5022468;28;20193;-71